sensor_id;sensor_type;location;lat;lon;timestamp;pressure;altitude;pressure_sealevel;temperature;humidity
54806;BME280;62866;55.776;37.496;2023-03-21T00:00:53;99468.88;;;4.31;60.86
54806;BME280;62866;55.776;37.496;2023-03-21T00:03:19;99466.25;;;4.31;60.58
54806;BME280;62866;55.776;37.496;2023-03-21T00:05:45;99461.47;;;4.34;60.78
54806;BME280;62866;55.776;37.496;2023-03-21T00:08:14;99461.00;;;4.39;60.05
54806;BME280;62866;55.776;37.496;2023-03-21T00:10:40;99434.47;;;4.31;59.93
54806;BME280;62866;55.776;37.496;2023-03-21T00:13:06;99461.19;;;4.45;60.26
54806;BME280;62866;55.776;37.496;2023-03-21T00:15:31;99457.34;;;4.40;60.51
54806;BME280;62866;55.776;37.496;2023-03-21T00:17:57;99437.63;;;4.26;60.44
54806;BME280;62866;55.776;37.496;2023-03-21T00:20:28;99450.06;;;4.34;60.17
54806;BME280;62866;55.776;37.496;2023-03-21T00:22:54;99446.88;;;4.30;59.98
54806;BME280;62866;55.776;37.496;2023-03-21T00:25:20;99445.66;;;4.16;60.67
54806;BME280;62866;55.776;37.496;2023-03-21T00:27:45;99446.31;;;4.18;61.29
54806;BME280;62866;55.776;37.496;2023-03-21T00:30:11;99443.78;;;4.09;61.50
54806;BME280;62866;55.776;37.496;2023-03-21T00:32:36;99437.34;;;4.11;61.22
54806;BME280;62866;55.776;37.496;2023-03-21T00:35:02;99431.91;;;4.13;61.19
54806;BME280;62866;55.776;37.496;2023-03-21T00:37:28;99420.28;;;4.06;61.65
54806;BME280;62866;55.776;37.496;2023-03-21T00:39:53;99426.31;;;4.16;61.17
54806;BME280;62866;55.776;37.496;2023-03-21T00:42:19;99420.63;;;4.11;61.01
54806;BME280;62866;55.776;37.496;2023-03-21T00:44:44;99405.38;;;4.05;61.07
54806;BME280;62866;55.776;37.496;2023-03-21T00:47:11;99425.97;;;4.19;61.02
54806;BME280;62866;55.776;37.496;2023-03-21T00:49:37;99429.16;;;4.23;61.03
54806;BME280;62866;55.776;37.496;2023-03-21T00:52:07;99430.81;;;4.24;61.37
54806;BME280;62866;55.776;37.496;2023-03-21T00:54:34;99420.38;;;4.22;60.89
54806;BME280;62866;55.776;37.496;2023-03-21T00:57:00;99427.53;;;4.30;61.42
54806;BME280;62866;55.776;37.496;2023-03-21T00:59:27;99407.50;;;4.27;60.91
54806;BME280;62866;55.776;37.496;2023-03-21T01:01:53;99417.97;;;4.37;60.90
54806;BME280;62866;55.776;37.496;2023-03-21T01:04:20;99416.53;;;4.42;60.67
54806;BME280;62866;55.776;37.496;2023-03-21T01:06:46;99409.38;;;4.35;61.04
54806;BME280;62866;55.776;37.496;2023-03-21T01:09:15;99418.25;;;4.26;61.25
54806;BME280;62866;55.776;37.496;2023-03-21T01:11:41;99388.72;;;4.12;61.63
54806;BME280;62866;55.776;37.496;2023-03-21T01:14:07;99414.81;;;4.33;60.90
54806;BME280;62866;55.776;37.496;2023-03-21T01:16:33;99402.72;;;4.31;61.08
54806;BME280;62866;55.776;37.496;2023-03-21T01:18:59;99407.03;;;4.32;60.81
54806;BME280;62866;55.776;37.496;2023-03-21T01:21:24;99398.13;;;4.33;61.51
54806;BME280;62866;55.776;37.496;2023-03-21T01:23:50;99398.13;;;4.33;61.04
54806;BME280;62866;55.776;37.496;2023-03-21T01:26:16;99397.38;;;4.23;61.92
54806;BME280;62866;55.776;37.496;2023-03-21T01:28:42;99390.97;;;4.25;61.50
54806;BME280;62866;55.776;37.496;2023-03-21T01:31:09;99390.47;;;4.30;61.05
54806;BME280;62866;55.776;37.496;2023-03-21T01:33:35;99387.38;;;4.34;61.27
54806;BME280;62866;55.776;37.496;2023-03-21T01:36:01;99388.66;;;4.30;61.17
54806;BME280;62866;55.776;37.496;2023-03-21T01:38:27;99381.84;;;4.28;61.37
54806;BME280;62866;55.776;37.496;2023-03-21T01:40:53;99382.69;;;4.28;61.32
54806;BME280;62866;55.776;37.496;2023-03-21T01:43:23;99392.00;;;4.32;61.18
54806;BME280;62866;55.776;37.496;2023-03-21T01:49:02;99379.69;;;4.23;61.23
54806;BME280;62866;55.776;37.496;2023-03-21T01:51:33;99362.22;;;4.04;61.30
54806;BME280;62866;55.776;37.496;2023-03-21T01:53:59;99389.44;;;4.23;61.32
54806;BME280;62866;55.776;37.496;2023-03-21T01:56:30;99385.53;;;4.27;61.49
54806;BME280;62866;55.776;37.496;2023-03-21T01:59:05;99338.91;;;4.00;61.43
54806;BME280;62866;55.776;37.496;2023-03-21T02:01:32;99377.34;;;4.20;61.21
54806;BME280;62866;55.776;37.496;2023-03-21T02:04:00;99382.00;;;4.18;61.32
54806;BME280;62866;55.776;37.496;2023-03-21T02:09:09;99380.75;;;4.04;61.56
54806;BME280;62866;55.776;37.496;2023-03-21T02:11:36;99369.19;;;4.05;61.45
54806;BME280;62866;55.776;37.496;2023-03-21T02:14:03;99376.13;;;4.06;61.84
54806;BME280;62866;55.776;37.496;2023-03-21T02:27:28;99364.88;;;4.04;62.39
54806;BME280;62866;55.776;37.496;2023-03-21T02:36:25;99358.41;;;3.99;62.24
54806;BME280;62866;55.776;37.496;2023-03-21T02:41:17;99356.94;;;4.04;61.72
54806;BME280;62866;55.776;37.496;2023-03-21T02:46:21;99362.75;;;4.08;61.22
54806;BME280;62866;55.776;37.496;2023-03-21T02:51:43;99334.88;;;3.88;61.55
54806;BME280;62866;55.776;37.496;2023-03-21T02:54:16;99357.28;;;4.01;61.81
54806;BME280;62866;55.776;37.496;2023-03-21T02:56:43;99350.97;;;4.02;61.61
54806;BME280;62866;55.776;37.496;2023-03-21T02:59:10;99352.19;;;4.08;61.81
54806;BME280;62866;55.776;37.496;2023-03-21T03:01:35;99340.03;;;3.97;61.17
54806;BME280;62866;55.776;37.496;2023-03-21T03:04:01;99352.13;;;4.00;61.64
54806;BME280;62866;55.776;37.496;2023-03-21T03:06:42;99344.84;;;4.02;61.59
54806;BME280;62866;55.776;37.496;2023-03-21T03:11:42;99338.56;;;4.03;61.54
54806;BME280;62866;55.776;37.496;2023-03-21T03:19:33;99322.84;;;3.93;60.90
54806;BME280;62866;55.776;37.496;2023-03-21T03:22:09;99327.53;;;4.07;61.04
54806;BME280;62866;55.776;37.496;2023-03-21T03:24:43;99322.09;;;4.09;61.01
54806;BME280;62866;55.776;37.496;2023-03-21T03:27:45;99320.94;;;4.11;60.03
54806;BME280;62866;55.776;37.496;2023-03-21T03:30:04;99311.97;;;4.04;60.50
54806;BME280;62866;55.776;37.496;2023-03-21T03:32:39;99325.53;;;4.01;60.94
54806;BME280;62866;55.776;37.496;2023-03-21T03:35:10;99318.09;;;4.05;60.85
54806;BME280;62866;55.776;37.496;2023-03-21T03:37:39;99317.59;;;4.01;60.59
54806;BME280;62866;55.776;37.496;2023-03-21T03:40:13;99327.38;;;4.09;60.52
54806;BME280;62866;55.776;37.496;2023-03-21T03:42:51;99330.81;;;4.01;61.30
54806;BME280;62866;55.776;37.496;2023-03-21T03:45:19;99319.75;;;4.06;60.91
54806;BME280;62866;55.776;37.496;2023-03-21T03:48:01;99315.81;;;4.10;60.66
54806;BME280;62866;55.776;37.496;2023-03-21T03:53:10;99314.47;;;4.06;60.51
54806;BME280;62866;55.776;37.496;2023-03-21T03:55:41;99308.00;;;4.00;60.50
54806;BME280;62866;55.776;37.496;2023-03-21T03:58:07;99319.59;;;4.07;60.43
54806;BME280;62866;55.776;37.496;2023-03-21T04:00:33;99317.97;;;4.14;60.24
54806;BME280;62866;55.776;37.496;2023-03-21T04:02:59;99310.72;;;4.16;60.07
54806;BME280;62866;55.776;37.496;2023-03-21T04:05:25;99308.72;;;4.18;60.31
54806;BME280;62866;55.776;37.496;2023-03-21T04:07:51;99300.97;;;4.17;60.63
54806;BME280;62866;55.776;37.496;2023-03-21T04:10:18;99311.44;;;4.27;60.43
54806;BME280;62866;55.776;37.496;2023-03-21T04:12:43;99301.31;;;4.30;59.81
54806;BME280;62866;55.776;37.496;2023-03-21T04:15:09;99305.59;;;4.23;59.66
54806;BME280;62866;55.776;37.496;2023-03-21T04:17:35;99310.75;;;4.25;59.88
54806;BME280;62866;55.776;37.496;2023-03-21T04:20:03;99304.63;;;4.24;59.55
54806;BME280;62866;55.776;37.496;2023-03-21T04:22:30;99301.50;;;4.29;59.76
54806;BME280;62866;55.776;37.496;2023-03-21T04:24:58;99299.88;;;4.44;59.44
54806;BME280;62866;55.776;37.496;2023-03-21T04:27:26;99303.22;;;4.54;58.79
54806;BME280;62866;55.776;37.496;2023-03-21T04:29:51;99305.38;;;4.50;59.30
54806;BME280;62866;55.776;37.496;2023-03-21T04:32:17;99303.56;;;4.51;59.13
54806;BME280;62866;55.776;37.496;2023-03-21T04:34:45;99301.91;;;4.58;59.33
54806;BME280;62866;55.776;37.496;2023-03-21T04:37:18;99303.09;;;4.72;59.25
54806;BME280;62866;55.776;37.496;2023-03-21T04:39:44;99305.25;;;4.76;58.41
54806;BME280;62866;55.776;37.496;2023-03-21T04:42:13;99308.56;;;4.86;58.42
54806;BME280;62866;55.776;37.496;2023-03-21T04:44:40;99312.41;;;5.00;58.25
54806;BME280;62866;55.776;37.496;2023-03-21T04:47:06;99301.81;;;5.08;57.77
54806;BME280;62866;55.776;37.496;2023-03-21T04:49:32;99306.44;;;5.22;57.19
54806;BME280;62866;55.776;37.496;2023-03-21T04:51:58;99288.56;;;5.16;57.32
54806;BME280;62866;55.776;37.496;2023-03-21T04:54:23;99301.13;;;5.30;57.17
54806;BME280;62866;55.776;37.496;2023-03-21T04:56:49;99293.34;;;5.37;56.25
54806;BME280;62866;55.776;37.496;2023-03-21T04:59:17;99300.81;;;5.42;56.20
54806;BME280;62866;55.776;37.496;2023-03-21T05:01:43;99296.81;;;5.38;56.05
54806;BME280;62866;55.776;37.496;2023-03-21T05:04:11;99295.81;;;5.39;56.86
54806;BME280;62866;55.776;37.496;2023-03-21T05:06:37;99303.78;;;5.30;56.20
54806;BME280;62866;55.776;37.496;2023-03-21T05:09:04;99292.34;;;5.22;56.78
54806;BME280;62866;55.776;37.496;2023-03-21T05:11:30;99300.81;;;5.09;56.85
54806;BME280;62866;55.776;37.496;2023-03-21T05:13:57;99292.88;;;5.09;56.91
54806;BME280;62866;55.776;37.496;2023-03-21T05:16:24;99287.88;;;4.98;56.66
54806;BME280;62866;55.776;37.496;2023-03-21T05:18:54;99288.41;;;4.93;57.49
54806;BME280;62866;55.776;37.496;2023-03-21T05:21:22;99297.34;;;4.84;57.26
54806;BME280;62866;55.776;37.496;2023-03-21T05:23:48;99288.72;;;4.82;57.53
54806;BME280;62866;55.776;37.496;2023-03-21T05:26:23;99285.06;;;4.67;58.01
54806;BME280;62866;55.776;37.496;2023-03-21T05:28:49;99292.50;;;4.72;58.53
54806;BME280;62866;55.776;37.496;2023-03-21T05:31:18;99282.41;;;4.67;58.67
54806;BME280;62866;55.776;37.496;2023-03-21T05:33:45;99298.16;;;4.77;58.62
54806;BME280;62866;55.776;37.496;2023-03-21T05:36:12;99295.97;;;4.80;59.03
54806;BME280;62866;55.776;37.496;2023-03-21T05:38:38;99291.84;;;4.86;59.03
54806;BME280;62866;55.776;37.496;2023-03-21T05:41:07;99294.19;;;5.05;58.79
54806;BME280;62866;55.776;37.496;2023-03-21T05:43:33;99291.06;;;5.18;58.81
54806;BME280;62866;55.776;37.496;2023-03-21T05:45:58;99295.00;;;5.30;58.47
54806;BME280;62866;55.776;37.496;2023-03-21T05:48:24;99275.97;;;5.26;58.40
54806;BME280;62866;55.776;37.496;2023-03-21T05:50:49;99291.69;;;5.52;57.88
54806;BME280;62866;55.776;37.496;2023-03-21T05:53:15;99292.19;;;5.40;58.64
54806;BME280;62866;55.776;37.496;2023-03-21T05:55:41;99294.81;;;5.48;58.90
54806;BME280;62866;55.776;37.496;2023-03-21T05:58:06;99299.09;;;5.65;57.84
54806;BME280;62866;55.776;37.496;2023-03-21T06:00:32;99289.34;;;5.49;58.47
54806;BME280;62866;55.776;37.496;2023-03-21T06:02:57;99294.78;;;5.64;58.75
54806;BME280;62866;55.776;37.496;2023-03-21T06:05:23;99298.59;;;5.61;57.74
54806;BME280;62866;55.776;37.496;2023-03-21T06:07:48;99279.06;;;5.46;58.67
54806;BME280;62866;55.776;37.496;2023-03-21T06:10:14;99293.13;;;5.71;58.11
54806;BME280;62866;55.776;37.496;2023-03-21T06:12:40;99288.00;;;5.61;58.58
54806;BME280;62866;55.776;37.496;2023-03-21T06:15:07;99272.59;;;5.65;58.12
54806;BME280;62866;55.776;37.496;2023-03-21T06:17:33;99283.97;;;5.82;58.28
54806;BME280;62866;55.776;37.496;2023-03-21T06:19:59;99291.06;;;6.05;57.90
54806;BME280;62866;55.776;37.496;2023-03-21T06:22:29;99285.75;;;6.05;57.80
54806;BME280;62866;55.776;37.496;2023-03-21T06:24:55;99265.00;;;6.09;57.54
54806;BME280;62866;55.776;37.496;2023-03-21T06:27:20;99261.41;;;6.33;57.25
54806;BME280;62866;55.776;37.496;2023-03-21T06:29:47;99279.81;;;6.65;57.32
54806;BME280;62866;55.776;37.496;2023-03-21T06:32:12;99278.19;;;6.56;57.06
54806;BME280;62866;55.776;37.496;2023-03-21T06:34:38;99278.56;;;6.76;57.03
54806;BME280;62866;55.776;37.496;2023-03-21T06:37:03;99263.75;;;6.81;56.59
54806;BME280;62866;55.776;37.496;2023-03-21T06:39:30;99264.47;;;6.75;57.04
54806;BME280;62866;55.776;37.496;2023-03-21T06:41:57;99261.63;;;6.77;56.91
54806;BME280;62866;55.776;37.496;2023-03-21T06:44:23;99254.59;;;6.84;57.33
54806;BME280;62866;55.776;37.496;2023-03-21T06:46:52;99263.88;;;7.11;56.92
54806;BME280;62866;55.776;37.496;2023-03-21T06:49:18;99264.75;;;7.41;56.17
54806;BME280;62866;55.776;37.496;2023-03-21T06:51:44;99249.84;;;7.69;55.63
54806;BME280;62866;55.776;37.496;2023-03-21T06:54:10;99249.81;;;7.98;55.03
54806;BME280;62866;55.776;37.496;2023-03-21T06:56:36;99257.47;;;8.37;54.40
54806;BME280;62866;55.776;37.496;2023-03-21T06:59:02;99240.81;;;8.86;54.07
54806;BME280;62866;55.776;37.496;2023-03-21T07:01:28;99238.88;;;9.85;52.34
54806;BME280;62866;55.776;37.496;2023-03-21T07:03:55;99240.91;;;11.11;50.22
54806;BME280;62866;55.776;37.496;2023-03-21T07:06:22;99239.03;;;11.71;49.20
54806;BME280;62866;55.776;37.496;2023-03-21T07:08:51;99233.06;;;11.49;48.85
54806;BME280;62866;55.776;37.496;2023-03-21T07:11:18;99242.09;;;10.76;50.60
54806;BME280;62866;55.776;37.496;2023-03-21T07:13:44;99233.88;;;10.16;52.13
54806;BME280;62866;55.776;37.496;2023-03-21T07:16:10;99231.91;;;9.90;52.42
54806;BME280;62866;55.776;37.496;2023-03-21T07:18:36;99238.25;;;9.55;53.08
54806;BME280;62866;55.776;37.496;2023-03-21T07:21:02;99246.09;;;9.29;53.83
54806;BME280;62866;55.776;37.496;2023-03-21T07:23:28;99240.53;;;9.02;55.19
54806;BME280;62866;55.776;37.496;2023-03-21T07:25:54;99246.00;;;8.94;55.85
54806;BME280;62866;55.776;37.496;2023-03-21T07:28:20;99219.38;;;8.80;55.99
54806;BME280;62866;55.776;37.496;2023-03-21T07:30:54;99238.38;;;8.70;57.58
54806;BME280;62866;55.776;37.496;2023-03-21T07:33:21;99238.84;;;8.37;58.93
54806;BME280;62866;55.776;37.496;2023-03-21T07:35:49;99240.44;;;8.17;59.40
54806;BME280;62866;55.776;37.496;2023-03-21T07:38:14;99238.88;;;8.08;60.05
54806;BME280;62866;55.776;37.496;2023-03-21T07:40:41;99243.31;;;8.01;60.26
54806;BME280;62866;55.776;37.496;2023-03-21T07:43:07;99235.03;;;7.96;59.52
54806;BME280;62866;55.776;37.496;2023-03-21T07:45:32;99238.78;;;7.87;61.27
54806;BME280;62866;55.776;37.496;2023-03-21T07:47:58;99237.91;;;7.94;61.23
54806;BME280;62866;55.776;37.496;2023-03-21T07:50:23;99237.41;;;8.35;60.73
54806;BME280;62866;55.776;37.496;2023-03-21T07:52:49;99222.19;;;8.71;60.95
54806;BME280;62866;55.776;37.496;2023-03-21T07:55:15;99223.94;;;9.07;59.07
54806;BME280;62866;55.776;37.496;2023-03-21T07:57:42;99222.28;;;9.27;59.06
54806;BME280;62866;55.776;37.496;2023-03-21T08:00:08;99223.22;;;9.47;59.02
54806;BME280;62866;55.776;37.496;2023-03-21T08:02:35;99220.97;;;9.44;58.82
54806;BME280;62866;55.776;37.496;2023-03-21T08:05:01;99223.84;;;9.49;59.25
54806;BME280;62866;55.776;37.496;2023-03-21T08:07:28;99220.13;;;9.44;59.60
54806;BME280;62866;55.776;37.496;2023-03-21T08:09:53;99212.28;;;9.36;60.28
54806;BME280;62866;55.776;37.496;2023-03-21T08:12:19;99209.75;;;9.28;60.37
54806;BME280;62866;55.776;37.496;2023-03-21T08:14:45;99216.94;;;9.27;60.25
54806;BME280;62866;55.776;37.496;2023-03-21T08:17:10;99202.22;;;9.38;61.13
54806;BME280;62866;55.776;37.496;2023-03-21T08:19:36;99205.97;;;9.43;61.21
54806;BME280;62866;55.776;37.496;2023-03-21T08:22:02;99216.97;;;9.34;60.47
54806;BME280;62866;55.776;37.496;2023-03-21T08:24:30;99203.06;;;9.10;62.01
54806;BME280;62866;55.776;37.496;2023-03-21T08:26:56;99197.09;;;8.87;62.54
54806;BME280;62866;55.776;37.496;2023-03-21T08:29:21;99189.88;;;8.81;62.94
54806;BME280;62866;55.776;37.496;2023-03-21T08:31:48;99201.00;;;8.85;62.64
54806;BME280;62866;55.776;37.496;2023-03-21T08:34:14;99203.66;;;8.63;63.37
54806;BME280;62866;55.776;37.496;2023-03-21T08:36:42;99215.66;;;8.74;63.79
54806;BME280;62866;55.776;37.496;2023-03-21T08:39:08;99201.63;;;8.65;64.21
54806;BME280;62866;55.776;37.496;2023-03-21T08:41:35;99207.59;;;8.89;64.17
54806;BME280;62866;55.776;37.496;2023-03-21T08:44:02;99205.72;;;9.10;64.18
54806;BME280;62866;55.776;37.496;2023-03-21T08:46:28;99209.53;;;9.29;62.50
54806;BME280;62866;55.776;37.496;2023-03-21T08:48:54;99204.69;;;8.84;63.75
54806;BME280;62866;55.776;37.496;2023-03-21T08:51:20;99205.38;;;8.71;64.41
54806;BME280;62866;55.776;37.496;2023-03-21T08:53:46;99214.56;;;8.90;64.70
54806;BME280;62866;55.776;37.496;2023-03-21T08:56:13;99195.91;;;8.90;64.12
54806;BME280;62866;55.776;37.496;2023-03-21T08:58:39;99197.19;;;8.94;64.22
54806;BME280;62866;55.776;37.496;2023-03-21T09:01:04;99200.66;;;9.22;63.65
54806;BME280;62866;55.776;37.496;2023-03-21T09:03:36;99193.31;;;9.52;62.50
54806;BME280;62866;55.776;37.496;2023-03-21T09:06:03;99204.19;;;9.92;62.33
54806;BME280;62866;55.776;37.496;2023-03-21T09:08:28;99202.19;;;10.13;60.99
54806;BME280;62866;55.776;37.496;2023-03-21T09:10:55;99185.44;;;10.19;61.08
54806;BME280;62866;55.776;37.496;2023-03-21T09:13:21;99198.88;;;10.59;61.17
54806;BME280;62866;55.776;37.496;2023-03-21T09:15:47;99205.88;;;10.60;59.92
54806;BME280;62866;55.776;37.496;2023-03-21T09:18:13;99204.22;;;10.65;60.57
54806;BME280;62866;55.776;37.496;2023-03-21T09:20:41;99203.00;;;10.75;60.21
54806;BME280;62866;55.776;37.496;2023-03-21T09:23:10;99191.06;;;10.57;59.71
54806;BME280;62866;55.776;37.496;2023-03-21T09:25:37;99185.69;;;10.44;59.69
54806;BME280;62866;55.776;37.496;2023-03-21T09:28:03;99181.63;;;10.61;59.13
54806;BME280;62866;55.776;37.496;2023-03-21T09:30:30;99180.59;;;10.76;58.68
54806;BME280;62866;55.776;37.496;2023-03-21T09:33:01;99171.97;;;10.74;58.42
54806;BME280;62866;55.776;37.496;2023-03-21T09:35:28;99185.16;;;10.95;58.20
54806;BME280;62866;55.776;37.496;2023-03-21T09:37:54;99138.44;;;10.58;58.24
54806;BME280;62866;55.776;37.496;2023-03-21T09:51:13;99166.00;;;11.18;57.38
54806;BME280;62866;55.776;37.496;2023-03-21T09:53:45;99145.19;;;11.26;57.01
54806;BME280;62866;55.776;37.496;2023-03-21T09:56:12;99163.53;;;11.29;56.49
54806;BME280;62866;55.776;37.496;2023-03-21T09:58:44;99168.06;;;11.09;57.69
54806;BME280;62866;55.776;37.496;2023-03-21T10:01:31;99164.09;;;11.31;57.08
54806;BME280;62866;55.776;37.496;2023-03-21T10:04:01;99148.88;;;11.45;56.24
54806;BME280;62866;55.776;37.496;2023-03-21T10:06:28;99153.56;;;11.56;55.68
54806;BME280;62866;55.776;37.496;2023-03-21T10:09:15;99153.59;;;11.43;56.22
54806;BME280;62866;55.776;37.496;2023-03-21T10:11:45;99146.78;;;11.54;56.36
54806;BME280;62866;55.776;37.496;2023-03-21T10:14:18;99154.34;;;11.63;55.91
54806;BME280;62866;55.776;37.496;2023-03-21T10:16:51;99144.09;;;11.54;55.69
54806;BME280;62866;55.776;37.496;2023-03-21T10:19:20;99144.69;;;11.56;55.75
54806;BME280;62866;55.776;37.496;2023-03-21T10:21:49;99141.66;;;11.39;55.86
54806;BME280;62866;55.776;37.496;2023-03-21T10:24:21;99127.97;;;10.96;56.59
54806;BME280;62866;55.776;37.496;2023-03-21T10:26:49;99131.44;;;10.57;57.51
54806;BME280;62866;55.776;37.496;2023-03-21T10:29:18;99129.97;;;10.35;58.00
54806;BME280;62866;55.776;37.496;2023-03-21T10:31:49;99120.28;;;10.20;58.74
54806;BME280;62866;55.776;37.496;2023-03-21T10:34:27;99122.97;;;10.47;57.85
54806;BME280;62866;55.776;37.496;2023-03-21T10:36:55;99121.56;;;10.77;57.02
54806;BME280;62866;55.776;37.496;2023-03-21T10:39:34;99122.81;;;10.88;56.44
54806;BME280;62866;55.776;37.496;2023-03-21T10:42:01;99120.75;;;10.77;56.56
54806;BME280;62866;55.776;37.496;2023-03-21T10:44:34;99121.56;;;10.77;56.52
54806;BME280;62866;55.776;37.496;2023-03-21T10:47:07;99115.41;;;10.70;56.63
54806;BME280;62866;55.776;37.496;2023-03-21T10:49:35;99120.53;;;10.45;57.23
54806;BME280;62866;55.776;37.496;2023-03-21T10:52:04;99104.06;;;10.42;56.37
54806;BME280;62866;55.776;37.496;2023-03-21T10:54:33;99116.59;;;10.28;56.73
54806;BME280;62866;55.776;37.496;2023-03-21T10:57:18;99113.69;;;10.30;56.76
54806;BME280;62866;55.776;37.496;2023-03-21T10:59:54;99114.47;;;10.10;57.04
54806;BME280;62866;55.776;37.496;2023-03-21T11:02:29;99115.25;;;10.04;57.00
54806;BME280;62866;55.776;37.496;2023-03-21T11:04:56;99100.47;;;10.02;56.84
54806;BME280;62866;55.776;37.496;2023-03-21T11:07:27;99110.75;;;10.05;56.98
54806;BME280;62866;55.776;37.496;2023-03-21T11:09:58;99105.09;;;9.73;57.30
54806;BME280;62866;55.776;37.496;2023-03-21T11:12:36;99100.75;;;9.66;56.69
54806;BME280;62866;55.776;37.496;2023-03-21T11:17:50;99096.22;;;9.60;57.13
54806;BME280;62866;55.776;37.496;2023-03-21T11:20:17;99093.38;;;9.61;56.40
54806;BME280;62866;55.776;37.496;2023-03-21T11:22:44;99096.25;;;9.66;56.53
54806;BME280;62866;55.776;37.496;2023-03-21T11:27:53;99080.31;;;9.93;55.44
54806;BME280;62866;55.776;37.496;2023-03-21T11:30:24;99072.25;;;9.73;55.26
54806;BME280;62866;55.776;37.496;2023-03-21T11:32:55;99084.97;;;9.71;55.40
54806;BME280;62866;55.776;37.496;2023-03-21T11:35:24;99088.88;;;9.68;54.29
54806;BME280;62866;55.776;37.496;2023-03-21T11:37:55;99085.38;;;9.68;52.92
54806;BME280;62866;55.776;37.496;2023-03-21T11:40:32;99091.09;;;9.65;52.87
54806;BME280;62866;55.776;37.496;2023-03-21T11:43:23;99087.69;;;9.77;52.57
54806;BME280;62866;55.776;37.496;2023-03-21T11:46:01;99083.16;;;9.78;51.83
54806;BME280;62866;55.776;37.496;2023-03-21T11:48:34;99080.88;;;9.75;51.89
54806;BME280;62866;55.776;37.496;2023-03-21T11:53:45;99075.38;;;9.83;51.53
54806;BME280;62866;55.776;37.496;2023-03-21T11:56:26;99067.38;;;9.89;51.65
54806;BME280;62866;55.776;37.496;2023-03-21T12:02:18;99066.97;;;9.93;50.33
54806;BME280;62866;55.776;37.496;2023-03-21T12:04:39;99069.66;;;10.06;50.05
54806;BME280;62866;55.776;37.496;2023-03-21T12:07:32;99062.28;;;10.01;49.92
54806;BME280;62866;55.776;37.496;2023-03-21T12:10:29;99058.13;;;9.79;50.28
54806;BME280;62866;55.776;37.496;2023-03-21T12:21:19;99051.13;;;9.30;51.39
54806;BME280;62866;55.776;37.496;2023-03-21T12:23:57;99048.47;;;9.30;50.83
54806;BME280;62866;55.776;37.496;2023-03-21T12:26:30;99043.84;;;9.45;50.30
54806;BME280;62866;55.776;37.496;2023-03-21T12:29:30;99046.28;;;9.47;50.51
54806;BME280;62866;55.776;37.496;2023-03-21T12:45:44;99026.47;;;9.82;49.05
54806;BME280;62866;55.776;37.496;2023-03-21T12:50:44;99021.97;;;9.96;48.47
54806;BME280;62866;55.776;37.496;2023-03-21T12:55:45;99021.50;;;9.60;48.52
54806;BME280;62866;55.776;37.496;2023-03-21T12:58:15;99021.91;;;9.63;48.63
54806;BME280;62866;55.776;37.496;2023-03-21T13:00:53;99020.50;;;9.74;48.36
54806;BME280;62866;55.776;37.496;2023-03-21T13:03:31;99014.78;;;9.70;48.62
54806;BME280;62866;55.776;37.496;2023-03-21T13:06:04;99008.38;;;9.65;48.28
54806;BME280;62866;55.776;37.496;2023-03-21T13:08:37;99019.28;;;9.76;48.37
54806;BME280;62866;55.776;37.496;2023-03-21T13:11:05;99014.78;;;9.90;48.28
54806;BME280;62866;55.776;37.496;2023-03-21T13:13:56;99016.19;;;11.11;46.25
54806;BME280;62866;55.776;37.496;2023-03-21T13:17:10;99013.78;;;11.41;45.46
54806;BME280;62866;55.776;37.496;2023-03-21T13:19:39;99018.09;;;10.84;46.77
54806;BME280;62866;55.776;37.496;2023-03-21T13:22:25;99026.75;;;10.67;46.94
54806;BME280;62866;55.776;37.496;2023-03-21T13:27:42;99008.84;;;10.14;47.71
54806;BME280;62866;55.776;37.496;2023-03-21T13:32:45;99013.81;;;10.11;47.44
54806;BME280;62866;55.776;37.496;2023-03-21T13:35:35;99012.56;;;10.13;47.26
54806;BME280;62866;55.776;37.496;2023-03-21T13:38:26;99014.41;;;10.06;47.46
54806;BME280;62866;55.776;37.496;2023-03-21T13:41:18;99015.63;;;9.90;47.88
54806;BME280;62866;55.776;37.496;2023-03-21T13:43:54;99010.88;;;9.79;47.99
54806;BME280;62866;55.776;37.496;2023-03-21T13:48:58;99005.75;;;9.84;47.59
54806;BME280;62866;55.776;37.496;2023-03-21T13:56:47;98989.13;;;9.89;47.69
54806;BME280;62866;55.776;37.496;2023-03-21T14:04:39;98997.31;;;9.68;47.00
54806;BME280;62866;55.776;37.496;2023-03-21T14:07:11;98980.81;;;9.44;47.40
54806;BME280;62866;55.776;37.496;2023-03-21T14:09:47;98983.19;;;9.20;47.69
54806;BME280;62866;55.776;37.496;2023-03-21T14:12:28;98976.56;;;9.02;48.69
54806;BME280;62866;55.776;37.496;2023-03-21T14:15:00;98984.28;;;8.91;48.12
54806;BME280;62866;55.776;37.496;2023-03-21T14:17:32;98987.50;;;8.80;48.41
54806;BME280;62866;55.776;37.496;2023-03-21T14:23:15;98988.97;;;8.82;48.18
54806;BME280;62866;55.776;37.496;2023-03-21T14:25:42;99000.28;;;8.91;48.24
54806;BME280;62866;55.776;37.496;2023-03-21T14:28:17;98990.94;;;9.08;47.89
54806;BME280;62866;55.776;37.496;2023-03-21T14:30:44;98990.31;;;9.06;47.78
54806;BME280;62866;55.776;37.496;2023-03-21T14:33:26;98990.31;;;9.12;47.85
54806;BME280;62866;55.776;37.496;2023-03-21T14:35:56;98994.03;;;9.11;47.75
54806;BME280;62866;55.776;37.496;2023-03-21T14:38:28;98993.41;;;9.09;47.72
54806;BME280;62866;55.776;37.496;2023-03-21T14:40:56;98990.13;;;9.14;47.72
54806;BME280;62866;55.776;37.496;2023-03-21T14:43:23;98988.53;;;9.20;47.77
54806;BME280;62866;55.776;37.496;2023-03-21T14:45:52;98982.75;;;9.16;47.11
54806;BME280;62866;55.776;37.496;2023-03-21T14:48:19;98980.72;;;9.11;47.25
54806;BME280;62866;55.776;37.496;2023-03-21T14:50:48;98978.63;;;9.07;47.12
54806;BME280;62866;55.776;37.496;2023-03-21T14:53:18;98980.06;;;9.03;47.42
54806;BME280;62866;55.776;37.496;2023-03-21T14:56:18;98982.09;;;9.01;47.77
54806;BME280;62866;55.776;37.496;2023-03-21T14:58:47;98978.13;;;8.90;48.00
54806;BME280;62866;55.776;37.496;2023-03-21T15:01:23;98967.00;;;8.80;47.88